Terminal Aerodrome Forecast
Issued by NWS

Home | Current Version | Previous Version | Text Only | Print | Product List | Glossary On
Versions: 1 2 3 4 5 6 7 8 9 10 11 12 13 14 15 16 17
797
FTUS43 KSGF 221720
TAFJLN
TAF
KJLN 221720Z 2218/2318 17010KT P6SM OVC250
     FM222300 23005KT P6SM BKN120
     FM230400 VRB03KT P6SM VCSH SCT050 BKN080
     FM230600 VRB03KT P6SM -SHRA VCTS SCT025CB OVC050
     FM231100 27004KT P6SM -SHRA VCTS OVC015CB
     FM231400 31008KT P6SM -SHRA VCTS OVC015CB=

USA.gov is the U.S. government's official web portal to all federal, state and local government web resources and services.